sensor_id;sensor_type;location;lat;lon;timestamp;pressure;altitude;pressure_sealevel;temperature;humidity
38912;BME280;28444;48.056;14.408;2023-06-22T00:00:46;97879.03;;;21.32;71.52
38912;BME280;28444;48.056;14.408;2023-06-22T00:03:33;97875.56;;;21.32;71.74
38912;BME280;28444;48.056;14.408;2023-06-22T00:06:20;97872.03;;;21.31;71.94
38912;BME280;28444;48.056;14.408;2023-06-22T00:09:07;97869.25;;;21.31;71.95
38912;BME280;28444;48.056;14.408;2023-06-22T00:11:54;97874.81;;;21.31;72.08
38912;BME280;28444;48.056;14.408;2023-06-22T00:14:41;97866.47;;;21.31;71.94
38912;BME280;28444;48.056;14.408;2023-06-22T00:17:28;97857.72;;;21.21;72.34
38912;BME280;28444;48.056;14.408;2023-06-22T00:20:15;97852.88;;;21.06;72.93
38912;BME280;28444;48.056;14.408;2023-06-22T00:23:05;97852.88;;;20.90;74.11
38912;BME280;28444;48.056;14.408;2023-06-22T00:25:54;97847.78;;;20.84;74.02
38912;BME280;28444;48.056;14.408;2023-06-22T00:28:41;97845.44;;;20.79;74.21
38912;BME280;28444;48.056;14.408;2023-06-22T00:31:28;97835.13;;;20.81;74.28
38912;BME280;28444;48.056;14.408;2023-06-22T00:34:15;97826.81;;;20.81;74.17
38912;BME280;28444;48.056;14.408;2023-06-22T00:37:02;97819.25;;;20.84;74.11
38912;BME280;28444;48.056;14.408;2023-06-22T00:39:49;97821.25;;;20.81;74.28
38912;BME280;28444;48.056;14.408;2023-06-22T00:42:37;97818.66;;;20.85;74.30
38912;BME280;28444;48.056;14.408;2023-06-22T00:45:26;97808.44;;;20.74;74.85
38912;BME280;28444;48.056;14.408;2023-06-22T00:48:14;97814.41;;;20.68;75.31
38912;BME280;28444;48.056;14.408;2023-06-22T00:51:02;97810.56;;;20.60;75.52
38912;BME280;28444;48.056;14.408;2023-06-22T00:53:49;97797.94;;;20.57;75.60
38912;BME280;28444;48.056;14.408;2023-06-22T00:56:36;97800.00;;;20.56;75.41
38912;BME280;28444;48.056;14.408;2023-06-22T00:59:26;97806.91;;;20.55;75.25
38912;BME280;28444;48.056;14.408;2023-06-22T01:02:13;97800.44;;;20.51;75.71
38912;BME280;28444;48.056;14.408;2023-06-22T01:05:09;97801.53;;;20.59;75.29
38912;BME280;28444;48.056;14.408;2023-06-22T01:11:18;97791.28;;;20.48;75.66
38912;BME280;28444;48.056;14.408;2023-06-22T01:14:14;97786.44;;;20.49;76.00
38912;BME280;28444;48.056;14.408;2023-06-22T01:17:02;97772.38;;;20.44;75.85
38912;BME280;28444;48.056;14.408;2023-06-22T01:19:51;97758.22;;;20.38;76.25
38912;BME280;28444;48.056;14.408;2023-06-22T01:29:41;97765.09;;;20.22;76.68
38912;BME280;28444;48.056;14.408;2023-06-22T01:32:31;97765.53;;;20.16;77.06
38912;BME280;28444;48.056;14.408;2023-06-22T01:35:22;97773.75;;;20.14;76.93
38912;BME280;28444;48.056;14.408;2023-06-22T01:38:10;97775.91;;;20.15;77.42
38912;BME280;28444;48.056;14.408;2023-06-22T01:40:58;97767.53;;;20.00;77.92
38912;BME280;28444;48.056;14.408;2023-06-22T01:43:46;97780.41;;;19.93;78.16
38912;BME280;28444;48.056;14.408;2023-06-22T01:46:35;97767.31;;;19.80;79.17
38912;BME280;28444;48.056;14.408;2023-06-22T01:49:22;97754.72;;;19.63;79.48
38912;BME280;28444;48.056;14.408;2023-06-22T01:52:10;97762.19;;;19.60;79.84
38912;BME280;28444;48.056;14.408;2023-06-22T01:54:57;97761.00;;;19.63;79.47
38912;BME280;28444;48.056;14.408;2023-06-22T01:57:44;97763.16;;;19.51;80.10
38912;BME280;28444;48.056;14.408;2023-06-22T02:00:33;97766.44;;;19.47;80.13
38912;BME280;28444;48.056;14.408;2023-06-22T02:03:23;97773.22;;;19.44;80.34
38912;BME280;28444;48.056;14.408;2023-06-22T02:06:21;97770.16;;;19.38;80.78
38912;BME280;28444;48.056;14.408;2023-06-22T02:09:12;97772.06;;;19.49;80.25
38912;BME280;28444;48.056;14.408;2023-06-22T02:12:02;97784.81;;;19.55;79.81
38912;BME280;28444;48.056;14.408;2023-06-22T02:14:51;97777.41;;;19.59;79.60
38912;BME280;28444;48.056;14.408;2023-06-22T02:17:38;97769.72;;;19.58;79.62
38912;BME280;28444;48.056;14.408;2023-06-22T02:20:25;97767.66;;;19.58;79.70
38912;BME280;28444;48.056;14.408;2023-06-22T02:23:13;97760.88;;;19.61;79.57
38912;BME280;28444;48.056;14.408;2023-06-22T02:26:01;97762.53;;;19.53;80.15
38912;BME280;28444;48.056;14.408;2023-06-22T02:28:48;97760.91;;;19.47;80.24
38912;BME280;28444;48.056;14.408;2023-06-22T02:31:36;97758.34;;;19.38;80.71
38912;BME280;28444;48.056;14.408;2023-06-22T02:34:23;97764.81;;;19.42;80.60
38912;BME280;28444;48.056;14.408;2023-06-22T02:37:10;97759.69;;;19.37;81.06
38912;BME280;28444;48.056;14.408;2023-06-22T02:39:57;97759.59;;;19.35;80.63
38912;BME280;28444;48.056;14.408;2023-06-22T02:42:44;97759.19;;;19.27;81.11
38912;BME280;28444;48.056;14.408;2023-06-22T02:45:31;97750.78;;;19.24;80.92
38912;BME280;28444;48.056;14.408;2023-06-22T02:48:18;97750.97;;;19.29;80.69
38912;BME280;28444;48.056;14.408;2023-06-22T02:51:05;97753.25;;;19.32;80.38
38912;BME280;28444;48.056;14.408;2023-06-22T02:53:52;97746.66;;;19.39;80.46
38912;BME280;28444;48.056;14.408;2023-06-22T02:56:44;97744.19;;;19.32;80.12
38912;BME280;28444;48.056;14.408;2023-06-22T02:59:31;97734.25;;;19.27;80.41
38912;BME280;28444;48.056;14.408;2023-06-22T03:02:20;97737.31;;;19.33;80.54
38912;BME280;28444;48.056;14.408;2023-06-22T03:05:08;97741.84;;;19.26;80.56
38912;BME280;28444;48.056;14.408;2023-06-22T03:08:00;97739.59;;;19.22;80.86
38912;BME280;28444;48.056;14.408;2023-06-22T03:10:47;97738.16;;;19.21;81.17
38912;BME280;28444;48.056;14.408;2023-06-22T03:13:34;97734.06;;;19.22;80.76
38912;BME280;28444;48.056;14.408;2023-06-22T03:16:21;97726.38;;;19.21;81.09
38912;BME280;28444;48.056;14.408;2023-06-22T03:19:08;97715.69;;;19.15;81.76
38912;BME280;28444;48.056;14.408;2023-06-22T03:21:55;97712.59;;;19.23;81.18
38912;BME280;28444;48.056;14.408;2023-06-22T03:24:42;97717.13;;;19.16;81.19
38912;BME280;28444;48.056;14.408;2023-06-22T03:27:28;97723.47;;;19.19;81.31
38912;BME280;28444;48.056;14.408;2023-06-22T03:30:15;97716.59;;;19.20;81.12
38912;BME280;28444;48.056;14.408;2023-06-22T03:33:02;97712.00;;;19.24;81.02
38912;BME280;28444;48.056;14.408;2023-06-22T03:35:49;97711.47;;;19.28;80.74
38912;BME280;28444;48.056;14.408;2023-06-22T03:38:36;97718.44;;;19.29;80.77
38912;BME280;28444;48.056;14.408;2023-06-22T03:41:23;97723.69;;;19.23;81.06
38912;BME280;28444;48.056;14.408;2023-06-22T03:44:10;97720.50;;;19.15;81.85
38912;BME280;28444;48.056;14.408;2023-06-22T03:46:59;97720.31;;;19.11;81.86
38912;BME280;28444;48.056;14.408;2023-06-22T03:49:46;97715.56;;;19.13;81.73
38912;BME280;28444;48.056;14.408;2023-06-22T03:52:32;97714.66;;;19.22;81.64
38912;BME280;28444;48.056;14.408;2023-06-22T03:55:20;97718.31;;;19.27;81.66
38912;BME280;28444;48.056;14.408;2023-06-22T03:58:07;97717.81;;;19.31;81.73
38912;BME280;28444;48.056;14.408;2023-06-22T04:00:53;97712.97;;;19.31;81.39
38912;BME280;28444;48.056;14.408;2023-06-22T04:03:41;97713.28;;;19.37;81.40
38912;BME280;28444;48.056;14.408;2023-06-22T04:06:28;97708.84;;;19.46;81.19
38912;BME280;28444;48.056;14.408;2023-06-22T04:09:15;97703.59;;;19.52;81.13
38912;BME280;28444;48.056;14.408;2023-06-22T04:12:02;97707.25;;;19.57;81.23
38912;BME280;28444;48.056;14.408;2023-06-22T04:14:49;97710.47;;;19.65;81.18
38912;BME280;28444;48.056;14.408;2023-06-22T04:17:36;97720.41;;;19.70;80.99
38912;BME280;28444;48.056;14.408;2023-06-22T04:20:23;97722.13;;;19.77;81.21
38912;BME280;28444;48.056;14.408;2023-06-22T04:23:15;97718.91;;;19.83;82.23
38912;BME280;28444;48.056;14.408;2023-06-22T04:26:02;97722.31;;;19.97;81.32
38912;BME280;28444;48.056;14.408;2023-06-22T04:28:49;97727.16;;;19.96;81.26
38912;BME280;28444;48.056;14.408;2023-06-22T04:31:45;97727.63;;;20.07;81.27
38912;BME280;28444;48.056;14.408;2023-06-22T04:34:37;97723.97;;;20.18;80.53
38912;BME280;28444;48.056;14.408;2023-06-22T04:37:24;97739.75;;;20.29;80.19
38912;BME280;28444;48.056;14.408;2023-06-22T04:40:11;97737.16;;;20.33;80.29
38912;BME280;28444;48.056;14.408;2023-06-22T04:43:01;97733.22;;;20.38;80.30
38912;BME280;28444;48.056;14.408;2023-06-22T04:45:49;97735.09;;;20.34;81.41
38912;BME280;28444;48.056;14.408;2023-06-22T04:48:39;97732.13;;;20.30;81.05
38912;BME280;28444;48.056;14.408;2023-06-22T04:51:26;97727.94;;;20.29;81.18
38912;BME280;28444;48.056;14.408;2023-06-22T04:54:17;97718.88;;;20.44;80.57
38912;BME280;28444;48.056;14.408;2023-06-22T04:57:05;97717.28;;;20.55;80.60
38912;BME280;28444;48.056;14.408;2023-06-22T04:59:56;97720.44;;;20.63;80.67
38912;BME280;28444;48.056;14.408;2023-06-22T05:02:44;97711.56;;;20.66;80.45
38912;BME280;28444;48.056;14.408;2023-06-22T05:05:34;97697.66;;;20.82;79.66
38912;BME280;28444;48.056;14.408;2023-06-22T05:08:21;97698.94;;;20.97;79.37
38912;BME280;28444;48.056;14.408;2023-06-22T05:11:13;97700.53;;;21.02;79.54
38912;BME280;28444;48.056;14.408;2023-06-22T05:14:00;97695.34;;;21.10;78.52
38912;BME280;28444;48.056;14.408;2023-06-22T05:16:46;97694.41;;;21.22;78.29
38912;BME280;28444;48.056;14.408;2023-06-22T05:19:33;97695.22;;;21.24;77.47
38912;BME280;28444;48.056;14.408;2023-06-22T05:22:21;97692.94;;;21.36;76.88
38912;BME280;28444;48.056;14.408;2023-06-22T05:25:10;97690.97;;;21.39;77.00
38912;BME280;28444;48.056;14.408;2023-06-22T05:27:57;97686.47;;;21.32;76.83
38912;BME280;28444;48.056;14.408;2023-06-22T05:30:44;97685.06;;;21.49;76.54
38912;BME280;28444;48.056;14.408;2023-06-22T05:33:31;97678.88;;;21.50;76.45
38912;BME280;28444;48.056;14.408;2023-06-22T05:36:21;97676.97;;;21.73;76.04
38912;BME280;28444;48.056;14.408;2023-06-22T05:39:13;97657.72;;;21.79;75.25
38912;BME280;28444;48.056;14.408;2023-06-22T05:42:00;97661.59;;;21.90;75.19
38912;BME280;28444;48.056;14.408;2023-06-22T05:44:47;97655.69;;;21.99;74.86
38912;BME280;28444;48.056;14.408;2023-06-22T05:47:34;97656.38;;;22.18;74.33
38912;BME280;28444;48.056;14.408;2023-06-22T05:50:21;97652.53;;;22.27;73.31
38912;BME280;28444;48.056;14.408;2023-06-22T05:53:08;97656.31;;;22.35;73.48
38912;BME280;28444;48.056;14.408;2023-06-22T05:55:55;97650.25;;;22.41;73.02
38912;BME280;28444;48.056;14.408;2023-06-22T05:58:42;97649.53;;;22.61;72.37
38912;BME280;28444;48.056;14.408;2023-06-22T06:01:29;97647.00;;;22.69;72.33
38912;BME280;28444;48.056;14.408;2023-06-22T06:04:18;97655.09;;;22.80;72.05
38912;BME280;28444;48.056;14.408;2023-06-22T06:07:06;97654.94;;;22.76;71.73
38912;BME280;28444;48.056;14.408;2023-06-22T06:09:52;97652.44;;;22.85;72.50
38912;BME280;28444;48.056;14.408;2023-06-22T06:12:39;97656.22;;;22.93;72.36
38912;BME280;28444;48.056;14.408;2023-06-22T06:15:26;97650.44;;;23.09;71.55
38912;BME280;28444;48.056;14.408;2023-06-22T06:18:13;97655.84;;;23.25;71.57
38912;BME280;28444;48.056;14.408;2023-06-22T06:21:00;97649.34;;;23.40;70.47
38912;BME280;28444;48.056;14.408;2023-06-22T06:23:47;97640.19;;;23.38;70.00
38912;BME280;28444;48.056;14.408;2023-06-22T06:26:34;97648.44;;;23.55;69.59
38912;BME280;28444;48.056;14.408;2023-06-22T06:29:22;97646.22;;;23.52;69.93
38912;BME280;28444;48.056;14.408;2023-06-22T06:32:10;97649.34;;;23.62;69.69
38912;BME280;28444;48.056;14.408;2023-06-22T06:34:57;97644.31;;;23.81;69.49
38912;BME280;28444;48.056;14.408;2023-06-22T06:37:47;97636.25;;;23.91;68.77
38912;BME280;28444;48.056;14.408;2023-06-22T06:40:35;97636.66;;;24.05;67.64
38912;BME280;28444;48.056;14.408;2023-06-22T06:43:22;97642.47;;;24.13;68.48
38912;BME280;28444;48.056;14.408;2023-06-22T06:46:10;97641.75;;;24.13;66.97
38912;BME280;28444;48.056;14.408;2023-06-22T06:48:57;97636.50;;;24.25;67.39
38912;BME280;28444;48.056;14.408;2023-06-22T06:51:44;97638.94;;;24.37;67.51
38912;BME280;28444;48.056;14.408;2023-06-22T06:54:31;97632.78;;;24.40;66.27
38912;BME280;28444;48.056;14.408;2023-06-22T06:57:18;97637.19;;;24.49;66.35
38912;BME280;28444;48.056;14.408;2023-06-22T07:00:11;97635.59;;;24.68;65.81
38912;BME280;28444;48.056;14.408;2023-06-22T07:03:00;97628.94;;;24.82;65.13
38912;BME280;28444;48.056;14.408;2023-06-22T07:05:47;97628.88;;;24.80;65.48
38912;BME280;28444;48.056;14.408;2023-06-22T07:08:33;97631.91;;;24.88;64.50
38912;BME280;28444;48.056;14.408;2023-06-22T07:11:21;97622.47;;;25.03;64.20
38912;BME280;28444;48.056;14.408;2023-06-22T07:14:08;97622.75;;;25.13;63.36
38912;BME280;28444;48.056;14.408;2023-06-22T07:16:55;97617.25;;;25.17;63.64
38912;BME280;28444;48.056;14.408;2023-06-22T07:19:42;97620.09;;;25.19;63.98
38912;BME280;28444;48.056;14.408;2023-06-22T07:22:29;97618.91;;;25.29;63.40
38912;BME280;28444;48.056;14.408;2023-06-22T07:25:16;97618.47;;;25.40;63.38
38912;BME280;28444;48.056;14.408;2023-06-22T07:28:05;97618.72;;;25.51;63.47
38912;BME280;28444;48.056;14.408;2023-06-22T07:30:52;97623.69;;;25.54;63.77
38912;BME280;28444;48.056;14.408;2023-06-22T07:33:39;97618.22;;;25.60;64.18
38912;BME280;28444;48.056;14.408;2023-06-22T07:36:26;97614.38;;;25.78;64.00
38912;BME280;28444;48.056;14.408;2023-06-22T07:39:13;97609.66;;;25.84;64.09
38912;BME280;28444;48.056;14.408;2023-06-22T07:42:01;97613.38;;;25.95;64.33
38912;BME280;28444;48.056;14.408;2023-06-22T07:44:48;97619.22;;;26.07;63.06
38912;BME280;28444;48.056;14.408;2023-06-22T07:47:36;97616.78;;;26.26;64.14
38912;BME280;28444;48.056;14.408;2023-06-22T07:50:24;97617.72;;;26.38;63.94
38912;BME280;28444;48.056;14.408;2023-06-22T07:53:11;97620.38;;;26.67;61.64
38912;BME280;28444;48.056;14.408;2023-06-22T07:55:57;97609.16;;;26.67;61.69
38912;BME280;28444;48.056;14.408;2023-06-22T07:58:45;97614.25;;;26.40;61.84
38912;BME280;28444;48.056;14.408;2023-06-22T08:01:32;97602.25;;;26.35;63.04
38912;BME280;28444;48.056;14.408;2023-06-22T08:04:19;97612.72;;;26.33;63.12
38912;BME280;28444;48.056;14.408;2023-06-22T08:07:07;97607.47;;;26.51;62.85
38912;BME280;28444;48.056;14.408;2023-06-22T08:09:54;97616.81;;;26.64;62.63
38912;BME280;28444;48.056;14.408;2023-06-22T08:12:41;97619.72;;;26.70;61.78
38912;BME280;28444;48.056;14.408;2023-06-22T08:15:28;97619.91;;;26.80;62.44
38912;BME280;28444;48.056;14.408;2023-06-22T08:18:16;97620.06;;;26.91;61.79
38912;BME280;28444;48.056;14.408;2023-06-22T08:21:03;97623.72;;;26.99;61.51
38912;BME280;28444;48.056;14.408;2023-06-22T08:23:51;97620.22;;;27.01;62.19
38912;BME280;28444;48.056;14.408;2023-06-22T08:26:38;97612.88;;;27.22;61.86
38912;BME280;28444;48.056;14.408;2023-06-22T08:29:25;97612.34;;;27.33;61.61
38912;BME280;28444;48.056;14.408;2023-06-22T08:32:12;97611.94;;;27.55;60.40
38912;BME280;28444;48.056;14.408;2023-06-22T08:34:59;97606.56;;;27.72;60.42
38912;BME280;28444;48.056;14.408;2023-06-22T08:37:46;97608.94;;;27.90;61.03
38912;BME280;28444;48.056;14.408;2023-06-22T08:40:38;97598.56;;;28.04;59.32
38912;BME280;28444;48.056;14.408;2023-06-22T08:43:25;97611.94;;;28.06;59.94
38912;BME280;28444;48.056;14.408;2023-06-22T08:46:12;97606.97;;;28.00;59.91
38912;BME280;28444;48.056;14.408;2023-06-22T08:48:59;97609.72;;;27.98;59.14
38912;BME280;28444;48.056;14.408;2023-06-22T08:51:46;97607.53;;;27.91;59.03
38912;BME280;28444;48.056;14.408;2023-06-22T08:54:36;97595.03;;;28.00;58.95
38912;BME280;28444;48.056;14.408;2023-06-22T08:57:22;97596.50;;;28.09;59.09
38912;BME280;28444;48.056;14.408;2023-06-22T09:00:10;97598.56;;;28.04;59.70
38912;BME280;28444;48.056;14.408;2023-06-22T09:03:06;97592.38;;;28.16;59.08
38912;BME280;28444;48.056;14.408;2023-06-22T09:05:55;97591.75;;;28.22;59.69
38912;BME280;28444;48.056;14.408;2023-06-22T09:08:42;97606.03;;;28.40;59.68
38912;BME280;28444;48.056;14.408;2023-06-22T09:11:29;97599.69;;;28.42;59.49
38912;BME280;28444;48.056;14.408;2023-06-22T09:14:16;97596.28;;;28.51;59.25
38912;BME280;28444;48.056;14.408;2023-06-22T09:17:03;97596.94;;;28.44;59.60
38912;BME280;28444;48.056;14.408;2023-06-22T09:19:50;97594.19;;;28.52;58.25
38912;BME280;28444;48.056;14.408;2023-06-22T09:22:37;97586.53;;;28.59;59.47
38912;BME280;28444;48.056;14.408;2023-06-22T09:25:24;97583.81;;;28.69;57.90
38912;BME280;28444;48.056;14.408;2023-06-22T09:28:11;97593.00;;;28.77;57.82
38912;BME280;28444;48.056;14.408;2023-06-22T09:30:58;97589.63;;;28.91;57.88
38912;BME280;28444;48.056;14.408;2023-06-22T09:33:46;97578.31;;;28.85;58.83
38912;BME280;28444;48.056;14.408;2023-06-22T09:36:33;97580.41;;;28.87;59.17
38912;BME280;28444;48.056;14.408;2023-06-22T09:39:20;97575.53;;;28.87;57.32
38912;BME280;28444;48.056;14.408;2023-06-22T09:42:07;97573.47;;;28.96;58.50
38912;BME280;28444;48.056;14.408;2023-06-22T09:44:55;97579.22;;;29.06;58.20
38912;BME280;28444;48.056;14.408;2023-06-22T09:47:41;97574.31;;;29.11;58.33
38912;BME280;28444;48.056;14.408;2023-06-22T09:50:29;97576.44;;;29.14;57.39
38912;BME280;28444;48.056;14.408;2023-06-22T09:53:17;97575.72;;;29.12;58.92
38912;BME280;28444;48.056;14.408;2023-06-22T09:56:04;97577.19;;;29.17;57.54
38912;BME280;28444;48.056;14.408;2023-06-22T09:58:53;97577.19;;;29.21;57.84
38912;BME280;28444;48.056;14.408;2023-06-22T10:01:41;97577.22;;;29.25;58.07
38912;BME280;28444;48.056;14.408;2023-06-22T10:04:28;97573.75;;;29.31;57.09
38912;BME280;28444;48.056;14.408;2023-06-22T10:07:16;97555.50;;;29.38;57.55
38912;BME280;28444;48.056;14.408;2023-06-22T10:10:03;97559.03;;;29.48;56.91
38912;BME280;28444;48.056;14.408;2023-06-22T10:12:57;97568.94;;;29.56;58.64
38912;BME280;28444;48.056;14.408;2023-06-22T10:15:44;97560.47;;;29.47;57.59
38912;BME280;28444;48.056;14.408;2023-06-22T10:18:36;97565.47;;;29.59;56.34
38912;BME280;28444;48.056;14.408;2023-06-22T10:21:23;97567.56;;;29.57;56.70
38912;BME280;28444;48.056;14.408;2023-06-22T10:24:10;97550.75;;;29.71;56.17
38912;BME280;28444;48.056;14.408;2023-06-22T10:26:57;97547.94;;;29.77;56.84
38912;BME280;28444;48.056;14.408;2023-06-22T10:29:44;97550.75;;;29.73;56.06
38912;BME280;28444;48.056;14.408;2023-06-22T10:32:31;97552.88;;;29.72;56.76
38912;BME280;28444;48.056;14.408;2023-06-22T10:35:18;97545.19;;;29.89;57.09
38912;BME280;28444;48.056;14.408;2023-06-22T10:38:05;97539.56;;;29.93;57.53
38912;BME280;28444;48.056;14.408;2023-06-22T10:40:52;97537.47;;;29.98;57.03
38912;BME280;28444;48.056;14.408;2023-06-22T10:43:39;97534.66;;;30.02;57.00
38912;BME280;28444;48.056;14.408;2023-06-22T10:46:26;97544.53;;;30.03;57.03
38912;BME280;28444;48.056;14.408;2023-06-22T10:49:14;97541.69;;;30.01;54.96
38912;BME280;28444;48.056;14.408;2023-06-22T10:52:01;97543.81;;;30.03;56.08
38912;BME280;28444;48.056;14.408;2023-06-22T10:54:48;97538.88;;;30.01;56.13
38912;BME280;28444;48.056;14.408;2023-06-22T10:57:35;97541.72;;;30.09;55.10
38912;BME280;28444;48.056;14.408;2023-06-22T11:00:23;97540.31;;;30.08;56.30
38912;BME280;28444;48.056;14.408;2023-06-22T11:03:10;97542.38;;;29.95;56.13
38912;BME280;28444;48.056;14.408;2023-06-22T11:06:00;97533.22;;;29.99;57.26
38912;BME280;28444;48.056;14.408;2023-06-22T11:08:47;97529.75;;;30.09;56.11
38912;BME280;28444;48.056;14.408;2023-06-22T11:11:51;97528.34;;;30.16;56.33
38912;BME280;28444;48.056;14.408;2023-06-22T11:14:40;97523.44;;;30.18;56.26
38912;BME280;28444;48.056;14.408;2023-06-22T11:17:27;97526.97;;;30.21;57.17
38912;BME280;28444;48.056;14.408;2023-06-22T11:20:14;97520.63;;;30.25;56.23
38912;BME280;28444;48.056;14.408;2023-06-22T11:23:01;97518.50;;;30.17;56.34
38912;BME280;28444;48.056;14.408;2023-06-22T11:25:48;97514.31;;;30.34;55.66
38912;BME280;28444;48.056;14.408;2023-06-22T11:28:35;97512.91;;;30.29;56.18
38912;BME280;28444;48.056;14.408;2023-06-22T11:31:21;97507.97;;;30.50;56.77
38912;BME280;28444;48.056;14.408;2023-06-22T11:34:12;97503.75;;;30.63;55.65
38912;BME280;28444;48.056;14.408;2023-06-22T11:36:59;97510.81;;;30.79;55.47
38912;BME280;28444;48.056;14.408;2023-06-22T11:39:46;97521.38;;;30.64;55.73
38912;BME280;28444;48.056;14.408;2023-06-22T11:42:39;97506.56;;;30.61;56.66
38912;BME280;28444;48.056;14.408;2023-06-22T11:45:26;97503.72;;;30.72;55.22
38912;BME280;28444;48.056;14.408;2023-06-22T11:48:13;97490.34;;;30.70;55.49
38912;BME280;28444;48.056;14.408;2023-06-22T11:51:00;97486.13;;;30.83;55.07
38912;BME280;28444;48.056;14.408;2023-06-22T11:53:49;97483.94;;;31.10;54.53
38912;BME280;28444;48.056;14.408;2023-06-22T11:56:36;97467.69;;;31.19;55.01
38912;BME280;28444;48.056;14.408;2023-06-22T11:59:23;97468.41;;;31.20;54.62
38912;BME280;28444;48.056;14.408;2023-06-22T12:02:10;97466.34;;;31.02;55.21
38912;BME280;28444;48.056;14.408;2023-06-22T12:04:57;97463.53;;;30.96;55.58
38912;BME280;28444;48.056;14.408;2023-06-22T12:07:44;97463.53;;;30.93;55.83
38912;BME280;28444;48.056;14.408;2023-06-22T12:10:31;97465.66;;;30.89;56.81
38912;BME280;28444;48.056;14.408;2023-06-22T12:13:19;97460.00;;;30.83;57.18
38912;BME280;28444;48.056;14.408;2023-06-22T12:16:06;97456.47;;;30.86;56.62
38912;BME280;28444;48.056;14.408;2023-06-22T12:18:53;97451.56;;;30.85;56.77
38912;BME280;28444;48.056;14.408;2023-06-22T12:21:40;97443.81;;;30.73;56.60
38912;BME280;28444;48.056;14.408;2023-06-22T12:24:27;97450.88;;;30.72;56.48
38912;BME280;28444;48.056;14.408;2023-06-22T12:27:15;97444.50;;;30.86;57.11
38912;BME280;28444;48.056;14.408;2023-06-22T12:30:03;97432.47;;;31.02;56.44
38912;BME280;28444;48.056;14.408;2023-06-22T12:32:50;97436.72;;;31.05;56.43
38912;BME280;28444;48.056;14.408;2023-06-22T12:35:40;97418.34;;;31.10;56.42
38912;BME280;28444;48.056;14.408;2023-06-22T12:38:26;97421.19;;;31.00;56.16
38912;BME280;28444;48.056;14.408;2023-06-22T12:41:13;97413.38;;;31.08;56.53
38912;BME280;28444;48.056;14.408;2023-06-22T12:44:01;97409.22;;;30.93;57.16
38912;BME280;28444;48.056;14.408;2023-06-22T12:46:49;97414.16;;;30.88;57.03
38912;BME280;28444;48.056;14.408;2023-06-22T12:49:36;97411.34;;;30.90;57.10
38912;BME280;28444;48.056;14.408;2023-06-22T12:52:23;97403.63;;;30.77;57.45
38912;BME280;28444;48.056;14.408;2023-06-22T12:55:10;97401.50;;;30.83;56.96
38912;BME280;28444;48.056;14.408;2023-06-22T12:57:57;97401.50;;;30.83;57.07
38912;BME280;28444;48.056;14.408;2023-06-22T13:00:44;97400.06;;;30.88;57.53
38912;BME280;28444;48.056;14.408;2023-06-22T13:03:31;97395.09;;;30.97;57.18
38912;BME280;28444;48.056;14.408;2023-06-22T13:06:18;97388.69;;;31.11;56.90
38912;BME280;28444;48.056;14.408;2023-06-22T13:09:04;97397.13;;;31.23;56.61
38912;BME280;28444;48.056;14.408;2023-06-22T13:11:54;97392.16;;;31.26;55.98
38912;BME280;28444;48.056;14.408;2023-06-22T13:14:41;97392.88;;;31.22;56.64
38912;BME280;28444;48.056;14.408;2023-06-22T13:17:29;97392.19;;;31.22;56.70
38912;BME280;28444;48.056;14.408;2023-06-22T13:20:16;97389.38;;;31.17;56.67
38912;BME280;28444;48.056;14.408;2023-06-22T13:23:03;97386.56;;;31.11;56.35
38912;BME280;28444;48.056;14.408;2023-06-22T13:25:50;97381.63;;;31.16;57.32
38912;BME280;28444;48.056;14.408;2023-06-22T13:28:37;97385.84;;;31.23;55.99
38912;BME280;28444;48.056;14.408;2023-06-22T13:31:24;97372.47;;;31.13;57.01
38912;BME280;28444;48.056;14.408;2023-06-22T13:34:11;97381.59;;;31.20;56.13
38912;BME280;28444;48.056;14.408;2023-06-22T13:36:59;97375.25;;;31.15;56.45
38912;BME280;28444;48.056;14.408;2023-06-22T13:39:46;97368.28;;;31.00;56.48
38912;BME280;28444;48.056;14.408;2023-06-22T13:42:33;97370.44;;;30.85;57.18
38912;BME280;28444;48.056;14.408;2023-06-22T13:45:20;97368.28;;;30.96;57.19
38912;BME280;28444;48.056;14.408;2023-06-22T13:48:07;97366.09;;;31.17;57.66
38912;BME280;28444;48.056;14.408;2023-06-22T13:50:54;97363.91;;;31.38;56.52
38912;BME280;28444;48.056;14.408;2023-06-22T13:53:41;97361.81;;;31.32;56.22
38912;BME280;28444;48.056;14.408;2023-06-22T13:56:30;97367.47;;;31.24;56.82
38912;BME280;28444;48.056;14.408;2023-06-22T13:59:17;97354.78;;;31.19;56.81
38912;BME280;28444;48.056;14.408;2023-06-22T14:02:04;97358.31;;;31.17;57.22
38912;BME280;28444;48.056;14.408;2023-06-22T14:04:51;97354.81;;;31.11;57.58
38912;BME280;28444;48.056;14.408;2023-06-22T14:07:38;97354.84;;;31.09;57.79
38912;BME280;28444;48.056;14.408;2023-06-22T14:10:27;97354.84;;;31.07;58.54
38912;BME280;28444;48.056;14.408;2023-06-22T14:13:14;97349.16;;;31.15;58.00
38912;BME280;28444;48.056;14.408;2023-06-22T14:16:02;97351.22;;;31.25;58.41
38912;BME280;28444;48.056;14.408;2023-06-22T14:18:49;97342.75;;;31.27;58.10
38912;BME280;28444;48.056;14.408;2023-06-22T14:21:36;97350.53;;;31.24;57.42
38912;BME280;28444;48.056;14.408;2023-06-22T14:24:23;97338.50;;;31.26;57.31
38912;BME280;28444;48.056;14.408;2023-06-22T14:27:13;97341.38;;;31.15;57.44
38912;BME280;28444;48.056;14.408;2023-06-22T14:30:00;97330.84;;;31.10;58.02
38912;BME280;28444;48.056;14.408;2023-06-22T14:32:50;97330.16;;;31.05;57.85
38912;BME280;28444;48.056;14.408;2023-06-22T14:35:37;97320.94;;;31.13;57.24
38912;BME280;28444;48.056;14.408;2023-06-22T14:38:24;97323.06;;;31.12;57.69
38912;BME280;28444;48.056;14.408;2023-06-22T14:41:11;97316.72;;;31.16;57.92
38912;BME280;28444;48.056;14.408;2023-06-22T14:44:01;97308.22;;;31.20;58.16
38912;BME280;28444;48.056;14.408;2023-06-22T14:46:48;97313.84;;;31.22;57.57